sensor_id;sensor_type;location;lat;lon;timestamp;temperature;humidity
17599;DHT22;8918;52.092;5.232;2023-11-21T00:00:19;6.70;99.90
17599;DHT22;8918;52.092;5.232;2023-11-21T00:02:45;6.70;99.90
17599;DHT22;8918;52.092;5.232;2023-11-21T00:05:12;6.70;99.90
17599;DHT22;8918;52.092;5.232;2023-11-21T00:07:39;6.70;99.90
17599;DHT22;8918;52.092;5.232;2023-11-21T00:10:06;6.70;99.90
17599;DHT22;8918;52.092;5.232;2023-11-21T00:12:32;6.70;99.90
17599;DHT22;8918;52.092;5.232;2023-11-21T00:14:58;6.70;99.90
17599;DHT22;8918;52.092;5.232;2023-11-21T00:17:24;6.70;99.90
17599;DHT22;8918;52.092;5.232;2023-11-21T00:19:50;6.60;99.90
17599;DHT22;8918;52.092;5.232;2023-11-21T00:22:17;6.60;99.90
17599;DHT22;8918;52.092;5.232;2023-11-21T00:24:43;6.60;99.90
17599;DHT22;8918;52.092;5.232;2023-11-21T00:27:09;6.50;99.90
17599;DHT22;8918;52.092;5.232;2023-11-21T00:29:34;6.50;99.90
17599;DHT22;8918;52.092;5.232;2023-11-21T00:32:00;6.40;99.90
17599;DHT22;8918;52.092;5.232;2023-11-21T00:34:25;6.40;99.90
17599;DHT22;8918;52.092;5.232;2023-11-21T00:36:51;6.30;99.90
17599;DHT22;8918;52.092;5.232;2023-11-21T00:39:16;6.30;99.90
17599;DHT22;8918;52.092;5.232;2023-11-21T00:41:42;6.40;99.90
17599;DHT22;8918;52.092;5.232;2023-11-21T00:44:10;6.40;99.90
17599;DHT22;8918;52.092;5.232;2023-11-21T00:46:35;6.40;99.90
17599;DHT22;8918;52.092;5.232;2023-11-21T00:49:02;6.40;99.90
17599;DHT22;8918;52.092;5.232;2023-11-21T00:51:29;6.40;99.90
17599;DHT22;8918;52.092;5.232;2023-11-21T00:53:55;6.40;99.90
17599;DHT22;8918;52.092;5.232;2023-11-21T00:56:21;6.30;99.90
17599;DHT22;8918;52.092;5.232;2023-11-21T00:58:47;6.30;99.90
17599;DHT22;8918;52.092;5.232;2023-11-21T01:01:22;6.30;99.90
17599;DHT22;8918;52.092;5.232;2023-11-21T01:03:50;6.30;99.90
17599;DHT22;8918;52.092;5.232;2023-11-21T01:06:16;6.40;99.90
17599;DHT22;8918;52.092;5.232;2023-11-21T01:08:44;6.40;99.90
17599;DHT22;8918;52.092;5.232;2023-11-21T01:11:10;6.40;99.90
17599;DHT22;8918;52.092;5.232;2023-11-21T01:13:38;6.40;99.90
17599;DHT22;8918;52.092;5.232;2023-11-21T01:16:04;6.40;99.90
17599;DHT22;8918;52.092;5.232;2023-11-21T01:18:31;6.40;99.90
17599;DHT22;8918;52.092;5.232;2023-11-21T01:20:57;6.40;99.90
17599;DHT22;8918;52.092;5.232;2023-11-21T01:23:23;6.40;99.90
17599;DHT22;8918;52.092;5.232;2023-11-21T01:25:49;6.50;99.90
17599;DHT22;8918;52.092;5.232;2023-11-21T01:28:14;6.40;99.90
17599;DHT22;8918;52.092;5.232;2023-11-21T01:30:40;6.40;99.90
17599;DHT22;8918;52.092;5.232;2023-11-21T01:33:06;6.50;99.90
17599;DHT22;8918;52.092;5.232;2023-11-21T01:35:31;6.50;99.90
17599;DHT22;8918;52.092;5.232;2023-11-21T01:37:57;6.40;99.90
17599;DHT22;8918;52.092;5.232;2023-11-21T01:40:23;6.40;99.90
17599;DHT22;8918;52.092;5.232;2023-11-21T01:42:49;6.40;99.90
17599;DHT22;8918;52.092;5.232;2023-11-21T01:45:15;6.50;99.90
17599;DHT22;8918;52.092;5.232;2023-11-21T01:47:42;6.50;99.90
17599;DHT22;8918;52.092;5.232;2023-11-21T01:50:15;6.50;99.90
17599;DHT22;8918;52.092;5.232;2023-11-21T01:52:46;6.40;99.90
17599;DHT22;8918;52.092;5.232;2023-11-21T01:55:15;6.50;99.90
17599;DHT22;8918;52.092;5.232;2023-11-21T01:57:45;6.50;99.90
17599;DHT22;8918;52.092;5.232;2023-11-21T02:00:12;6.50;99.90
17599;DHT22;8918;52.092;5.232;2023-11-21T02:02:44;6.60;99.90
17599;DHT22;8918;52.092;5.232;2023-11-21T02:05:11;6.70;99.90
17599;DHT22;8918;52.092;5.232;2023-11-21T02:07:41;6.70;99.90
17599;DHT22;8918;52.092;5.232;2023-11-21T02:10:08;6.80;99.90
17599;DHT22;8918;52.092;5.232;2023-11-21T02:12:34;6.80;99.90
17599;DHT22;8918;52.092;5.232;2023-11-21T02:15:02;6.80;99.90
17599;DHT22;8918;52.092;5.232;2023-11-21T02:17:30;6.80;99.90
17599;DHT22;8918;52.092;5.232;2023-11-21T02:19:58;6.80;99.90
17599;DHT22;8918;52.092;5.232;2023-11-21T02:22:26;6.80;99.90
17599;DHT22;8918;52.092;5.232;2023-11-21T02:24:53;6.80;99.90
17599;DHT22;8918;52.092;5.232;2023-11-21T02:27:19;6.80;99.90
17599;DHT22;8918;52.092;5.232;2023-11-21T02:29:47;6.80;99.90
17599;DHT22;8918;52.092;5.232;2023-11-21T02:32:13;6.90;99.90
17599;DHT22;8918;52.092;5.232;2023-11-21T02:34:38;6.90;99.90
17599;DHT22;8918;52.092;5.232;2023-11-21T02:37:04;6.90;99.90
17599;DHT22;8918;52.092;5.232;2023-11-21T02:39:31;6.90;99.90
17599;DHT22;8918;52.092;5.232;2023-11-21T02:41:57;6.90;99.90
17599;DHT22;8918;52.092;5.232;2023-11-21T02:44:22;6.90;99.90
17599;DHT22;8918;52.092;5.232;2023-11-21T02:46:48;6.90;99.90
17599;DHT22;8918;52.092;5.232;2023-11-21T02:49:13;6.90;99.90
17599;DHT22;8918;52.092;5.232;2023-11-21T02:51:39;6.90;99.90
17599;DHT22;8918;52.092;5.232;2023-11-21T02:54:06;6.90;99.90
17599;DHT22;8918;52.092;5.232;2023-11-21T02:56:33;7.00;99.90
17599;DHT22;8918;52.092;5.232;2023-11-21T02:59:00;7.00;99.90
17599;DHT22;8918;52.092;5.232;2023-11-21T03:01:26;7.00;99.90
17599;DHT22;8918;52.092;5.232;2023-11-21T03:03:53;7.10;99.90
17599;DHT22;8918;52.092;5.232;2023-11-21T03:06:19;7.10;99.90
17599;DHT22;8918;52.092;5.232;2023-11-21T03:08:45;7.10;99.90
17599;DHT22;8918;52.092;5.232;2023-11-21T03:11:11;7.10;99.90
17599;DHT22;8918;52.092;5.232;2023-11-21T03:13:41;7.10;99.90
17599;DHT22;8918;52.092;5.232;2023-11-21T03:16:10;7.10;99.90
17599;DHT22;8918;52.092;5.232;2023-11-21T03:18:37;7.10;99.90
17599;DHT22;8918;52.092;5.232;2023-11-21T03:21:03;7.20;99.90
17599;DHT22;8918;52.092;5.232;2023-11-21T03:23:29;7.20;99.90
17599;DHT22;8918;52.092;5.232;2023-11-21T03:25:55;7.20;99.90
17599;DHT22;8918;52.092;5.232;2023-11-21T03:28:20;7.30;99.90
17599;DHT22;8918;52.092;5.232;2023-11-21T03:30:46;7.30;99.90
17599;DHT22;8918;52.092;5.232;2023-11-21T03:33:11;7.30;99.90
17599;DHT22;8918;52.092;5.232;2023-11-21T03:35:37;7.30;99.90
17599;DHT22;8918;52.092;5.232;2023-11-21T03:38:03;7.30;99.90
17599;DHT22;8918;52.092;5.232;2023-11-21T03:40:29;7.40;99.90
17599;DHT22;8918;52.092;5.232;2023-11-21T03:42:56;7.30;99.90
17599;DHT22;8918;52.092;5.232;2023-11-21T03:45:22;7.40;99.90
17599;DHT22;8918;52.092;5.232;2023-11-21T03:47:48;7.40;99.90
17599;DHT22;8918;52.092;5.232;2023-11-21T03:50:14;7.40;99.90
17599;DHT22;8918;52.092;5.232;2023-11-21T03:52:39;7.40;99.90
17599;DHT22;8918;52.092;5.232;2023-11-21T03:55:05;7.40;99.90
17599;DHT22;8918;52.092;5.232;2023-11-21T03:57:32;7.40;99.90
17599;DHT22;8918;52.092;5.232;2023-11-21T03:59:57;7.40;99.90
17599;DHT22;8918;52.092;5.232;2023-11-21T04:02:23;7.40;99.90
17599;DHT22;8918;52.092;5.232;2023-11-21T04:04:51;7.40;99.90
17599;DHT22;8918;52.092;5.232;2023-11-21T04:07:17;7.40;99.90
17599;DHT22;8918;52.092;5.232;2023-11-21T04:09:43;7.40;99.90
17599;DHT22;8918;52.092;5.232;2023-11-21T04:12:09;7.40;99.90
17599;DHT22;8918;52.092;5.232;2023-11-21T04:14:35;7.40;99.90
17599;DHT22;8918;52.092;5.232;2023-11-21T04:17:01;7.40;99.90
17599;DHT22;8918;52.092;5.232;2023-11-21T04:19:26;7.40;99.90
17599;DHT22;8918;52.092;5.232;2023-11-21T04:21:52;7.40;99.90
17599;DHT22;8918;52.092;5.232;2023-11-21T04:24:17;7.50;99.90
17599;DHT22;8918;52.092;5.232;2023-11-21T04:26:46;7.50;99.90
17599;DHT22;8918;52.092;5.232;2023-11-21T04:29:12;7.50;99.90
17599;DHT22;8918;52.092;5.232;2023-11-21T04:31:37;7.50;99.90
17599;DHT22;8918;52.092;5.232;2023-11-21T04:34:03;7.60;99.90
17599;DHT22;8918;52.092;5.232;2023-11-21T04:36:29;7.60;99.90
17599;DHT22;8918;52.092;5.232;2023-11-21T04:38:56;7.70;99.90
17599;DHT22;8918;52.092;5.232;2023-11-21T04:41:22;7.70;99.90
17599;DHT22;8918;52.092;5.232;2023-11-21T04:43:47;7.70;99.90
17599;DHT22;8918;52.092;5.232;2023-11-21T04:46:13;7.80;99.90
17599;DHT22;8918;52.092;5.232;2023-11-21T04:48:38;7.80;99.90
17599;DHT22;8918;52.092;5.232;2023-11-21T04:51:04;7.80;99.90
17599;DHT22;8918;52.092;5.232;2023-11-21T04:53:30;7.80;99.90
17599;DHT22;8918;52.092;5.232;2023-11-21T04:55:55;7.80;99.90
17599;DHT22;8918;52.092;5.232;2023-11-21T04:58:21;7.80;99.90
17599;DHT22;8918;52.092;5.232;2023-11-21T05:00:47;7.80;99.90
17599;DHT22;8918;52.092;5.232;2023-11-21T05:03:12;7.80;99.90
17599;DHT22;8918;52.092;5.232;2023-11-21T05:05:38;7.80;99.90
17599;DHT22;8918;52.092;5.232;2023-11-21T05:08:03;7.80;99.90
17599;DHT22;8918;52.092;5.232;2023-11-21T05:10:30;7.80;99.90
17599;DHT22;8918;52.092;5.232;2023-11-21T05:12:55;7.80;99.90
17599;DHT22;8918;52.092;5.232;2023-11-21T05:15:21;7.80;99.90
17599;DHT22;8918;52.092;5.232;2023-11-21T05:17:47;7.80;99.90
17599;DHT22;8918;52.092;5.232;2023-11-21T05:20:16;7.80;99.90
17599;DHT22;8918;52.092;5.232;2023-11-21T05:22:49;7.80;99.90
17599;DHT22;8918;52.092;5.232;2023-11-21T05:25:15;7.80;99.90
17599;DHT22;8918;52.092;5.232;2023-11-21T05:27:42;7.80;99.90
17599;DHT22;8918;52.092;5.232;2023-11-21T05:30:08;7.80;99.90
17599;DHT22;8918;52.092;5.232;2023-11-21T05:32:37;7.90;99.90
17599;DHT22;8918;52.092;5.232;2023-11-21T05:35:04;7.90;99.90
17599;DHT22;8918;52.092;5.232;2023-11-21T05:37:35;7.90;99.90
17599;DHT22;8918;52.092;5.232;2023-11-21T05:40:01;7.90;99.90
17599;DHT22;8918;52.092;5.232;2023-11-21T05:42:32;7.90;99.90
17599;DHT22;8918;52.092;5.232;2023-11-21T05:44:57;7.90;99.90
17599;DHT22;8918;52.092;5.232;2023-11-21T05:47:24;7.90;99.90
17599;DHT22;8918;52.092;5.232;2023-11-21T05:49:51;7.90;99.90
17599;DHT22;8918;52.092;5.232;2023-11-21T05:52:17;7.90;99.90
17599;DHT22;8918;52.092;5.232;2023-11-21T05:54:43;7.90;99.90
17599;DHT22;8918;52.092;5.232;2023-11-21T05:57:09;8.00;99.90
17599;DHT22;8918;52.092;5.232;2023-11-21T05:59:34;8.00;99.90
17599;DHT22;8918;52.092;5.232;2023-11-21T06:02:00;8.00;99.90
17599;DHT22;8918;52.092;5.232;2023-11-21T06:04:25;8.10;99.90
17599;DHT22;8918;52.092;5.232;2023-11-21T06:06:51;8.10;99.90
17599;DHT22;8918;52.092;5.232;2023-11-21T06:09:19;8.10;99.90
17599;DHT22;8918;52.092;5.232;2023-11-21T06:11:44;8.10;99.90
17599;DHT22;8918;52.092;5.232;2023-11-21T06:14:10;8.10;99.90
17599;DHT22;8918;52.092;5.232;2023-11-21T06:16:36;8.10;99.90
17599;DHT22;8918;52.092;5.232;2023-11-21T06:19:02;8.10;99.90
17599;DHT22;8918;52.092;5.232;2023-11-21T06:21:27;8.10;99.90
17599;DHT22;8918;52.092;5.232;2023-11-21T06:23:53;8.20;99.90
17599;DHT22;8918;52.092;5.232;2023-11-21T06:26:18;8.20;99.90
17599;DHT22;8918;52.092;5.232;2023-11-21T06:28:44;8.20;99.90
17599;DHT22;8918;52.092;5.232;2023-11-21T06:31:10;8.20;99.90
17599;DHT22;8918;52.092;5.232;2023-11-21T06:33:36;8.20;99.90
17599;DHT22;8918;52.092;5.232;2023-11-21T06:36:01;8.20;99.90
17599;DHT22;8918;52.092;5.232;2023-11-21T06:38:31;8.20;99.90
17599;DHT22;8918;52.092;5.232;2023-11-21T06:40:57;8.30;99.90
17599;DHT22;8918;52.092;5.232;2023-11-21T06:43:23;8.30;99.90
17599;DHT22;8918;52.092;5.232;2023-11-21T06:45:49;8.30;99.90
17599;DHT22;8918;52.092;5.232;2023-11-21T06:48:14;8.30;99.90
17599;DHT22;8918;52.092;5.232;2023-11-21T06:50:40;8.40;99.90
17599;DHT22;8918;52.092;5.232;2023-11-21T06:53:07;8.40;99.90
17599;DHT22;8918;52.092;5.232;2023-11-21T06:55:33;8.50;99.90
17599;DHT22;8918;52.092;5.232;2023-11-21T06:57:59;8.50;99.90
17599;DHT22;8918;52.092;5.232;2023-11-21T07:00:25;8.60;99.90
17599;DHT22;8918;52.092;5.232;2023-11-21T07:02:53;8.60;99.90
17599;DHT22;8918;52.092;5.232;2023-11-21T07:05:20;8.70;99.90
17599;DHT22;8918;52.092;5.232;2023-11-21T07:07:47;8.80;99.90
17599;DHT22;8918;52.092;5.232;2023-11-21T07:10:13;8.80;99.90
17599;DHT22;8918;52.092;5.232;2023-11-21T07:12:39;8.90;99.90
17599;DHT22;8918;52.092;5.232;2023-11-21T07:15:06;8.90;99.90
17599;DHT22;8918;52.092;5.232;2023-11-21T07:17:37;8.90;99.90
17599;DHT22;8918;52.092;5.232;2023-11-21T07:20:03;8.90;99.90
17599;DHT22;8918;52.092;5.232;2023-11-21T07:22:29;9.00;99.90
17599;DHT22;8918;52.092;5.232;2023-11-21T07:24:55;9.00;99.90
17599;DHT22;8918;52.092;5.232;2023-11-21T07:27:22;9.10;99.90
17599;DHT22;8918;52.092;5.232;2023-11-21T07:29:48;9.10;99.90
17599;DHT22;8918;52.092;5.232;2023-11-21T07:32:17;9.10;99.90
17599;DHT22;8918;52.092;5.232;2023-11-21T07:34:42;9.10;99.90
17599;DHT22;8918;52.092;5.232;2023-11-21T07:37:08;9.10;99.90
17599;DHT22;8918;52.092;5.232;2023-11-21T07:39:36;9.10;99.90
17599;DHT22;8918;52.092;5.232;2023-11-21T07:42:02;9.10;99.90
17599;DHT22;8918;52.092;5.232;2023-11-21T07:44:29;9.20;99.90
17599;DHT22;8918;52.092;5.232;2023-11-21T07:46:55;9.20;99.90
17599;DHT22;8918;52.092;5.232;2023-11-21T07:49:24;9.20;99.90
17599;DHT22;8918;52.092;5.232;2023-11-21T07:51:50;9.20;99.90
17599;DHT22;8918;52.092;5.232;2023-11-21T07:54:16;9.20;99.90
17599;DHT22;8918;52.092;5.232;2023-11-21T07:56:41;9.30;99.90
17599;DHT22;8918;52.092;5.232;2023-11-21T07:59:07;9.30;99.90
17599;DHT22;8918;52.092;5.232;2023-11-21T08:01:33;9.30;99.90
17599;DHT22;8918;52.092;5.232;2023-11-21T08:03:59;9.30;99.90
17599;DHT22;8918;52.092;5.232;2023-11-21T08:06:31;9.30;99.90
17599;DHT22;8918;52.092;5.232;2023-11-21T08:08:57;9.40;99.90
17599;DHT22;8918;52.092;5.232;2023-11-21T08:11:22;9.40;99.90
17599;DHT22;8918;52.092;5.232;2023-11-21T08:13:48;9.40;99.90
17599;DHT22;8918;52.092;5.232;2023-11-21T08:16:14;9.50;99.90
17599;DHT22;8918;52.092;5.232;2023-11-21T08:18:39;9.50;99.90
17599;DHT22;8918;52.092;5.232;2023-11-21T08:21:06;9.50;99.90
17599;DHT22;8918;52.092;5.232;2023-11-21T08:23:33;9.50;99.90
17599;DHT22;8918;52.092;5.232;2023-11-21T08:25:59;9.60;99.90
17599;DHT22;8918;52.092;5.232;2023-11-21T08:28:25;9.60;99.90
17599;DHT22;8918;52.092;5.232;2023-11-21T08:30:54;9.60;99.90
17599;DHT22;8918;52.092;5.232;2023-11-21T08:33:19;9.60;99.90
17599;DHT22;8918;52.092;5.232;2023-11-21T08:35:45;9.70;99.90
17599;DHT22;8918;52.092;5.232;2023-11-21T08:38:11;9.70;99.90
17599;DHT22;8918;52.092;5.232;2023-11-21T08:40:37;9.70;99.90
17599;DHT22;8918;52.092;5.232;2023-11-21T08:43:03;9.70;99.90
17599;DHT22;8918;52.092;5.232;2023-11-21T08:45:30;9.70;99.90
17599;DHT22;8918;52.092;5.232;2023-11-21T08:47:56;9.70;99.90
17599;DHT22;8918;52.092;5.232;2023-11-21T08:50:21;9.80;99.90
17599;DHT22;8918;52.092;5.232;2023-11-21T08:52:47;9.80;99.90
17599;DHT22;8918;52.092;5.232;2023-11-21T08:55:13;9.80;99.90
17599;DHT22;8918;52.092;5.232;2023-11-21T08:57:40;9.80;99.90
17599;DHT22;8918;52.092;5.232;2023-11-21T09:00:07;9.90;99.90
17599;DHT22;8918;52.092;5.232;2023-11-21T09:02:37;9.90;99.90
17599;DHT22;8918;52.092;5.232;2023-11-21T09:05:06;10.00;99.90
17599;DHT22;8918;52.092;5.232;2023-11-21T09:07:32;10.10;99.90
17599;DHT22;8918;52.092;5.232;2023-11-21T09:09:58;10.20;99.90
17599;DHT22;8918;52.092;5.232;2023-11-21T09:12:24;10.30;99.90
17599;DHT22;8918;52.092;5.232;2023-11-21T09:14:52;10.30;99.90
17599;DHT22;8918;52.092;5.232;2023-11-21T09:17:17;10.40;99.90
17599;DHT22;8918;52.092;5.232;2023-11-21T09:19:44;10.40;99.90
17599;DHT22;8918;52.092;5.232;2023-11-21T09:22:12;10.40;99.90
17599;DHT22;8918;52.092;5.232;2023-11-21T09:24:38;10.40;99.90
17599;DHT22;8918;52.092;5.232;2023-11-21T09:27:03;10.30;99.90
17599;DHT22;8918;52.092;5.232;2023-11-21T09:29:30;10.30;99.90
17599;DHT22;8918;52.092;5.232;2023-11-21T09:31:57;10.40;99.90
17599;DHT22;8918;52.092;5.232;2023-11-21T09:34:25;10.30;99.90
17599;DHT22;8918;52.092;5.232;2023-11-21T09:36:51;10.30;99.90
17599;DHT22;8918;52.092;5.232;2023-11-21T09:39:17;10.30;99.90
17599;DHT22;8918;52.092;5.232;2023-11-21T09:41:44;10.30;99.90
17599;DHT22;8918;52.092;5.232;2023-11-21T09:44:13;10.20;99.90
17599;DHT22;8918;52.092;5.232;2023-11-21T09:46:43;10.20;99.90
17599;DHT22;8918;52.092;5.232;2023-11-21T09:49:09;10.10;99.90
17599;DHT22;8918;52.092;5.232;2023-11-21T09:51:43;10.10;99.90
17599;DHT22;8918;52.092;5.232;2023-11-21T09:54:12;10.10;99.90
17599;DHT22;8918;52.092;5.232;2023-11-21T09:56:38;10.10;99.90
17599;DHT22;8918;52.092;5.232;2023-11-21T09:59:05;10.10;99.90
17599;DHT22;8918;52.092;5.232;2023-11-21T10:01:36;10.00;99.90
17599;DHT22;8918;52.092;5.232;2023-11-21T10:04:02;10.00;99.90
17599;DHT22;8918;52.092;5.232;2023-11-21T10:06:28;10.00;99.90
17599;DHT22;8918;52.092;5.232;2023-11-21T10:08:56;10.00;99.90
17599;DHT22;8918;52.092;5.232;2023-11-21T10:11:24;10.00;99.90
17599;DHT22;8918;52.092;5.232;2023-11-21T10:13:55;10.10;99.90
17599;DHT22;8918;52.092;5.232;2023-11-21T10:16:25;10.10;99.90
17599;DHT22;8918;52.092;5.232;2023-11-21T10:18:52;10.00;99.90
17599;DHT22;8918;52.092;5.232;2023-11-21T10:21:21;10.00;99.90
17599;DHT22;8918;52.092;5.232;2023-11-21T10:23:47;10.00;99.90
17599;DHT22;8918;52.092;5.232;2023-11-21T10:26:13;10.00;99.90
17599;DHT22;8918;52.092;5.232;2023-11-21T10:29:01;10.00;99.90
17599;DHT22;8918;52.092;5.232;2023-11-21T10:31:32;10.00;99.90
17599;DHT22;8918;52.092;5.232;2023-11-21T10:34:20;10.00;99.90
17599;DHT22;8918;52.092;5.232;2023-11-21T10:36:46;10.00;99.90
17599;DHT22;8918;52.092;5.232;2023-11-21T10:39:17;10.00;99.90
17599;DHT22;8918;52.092;5.232;2023-11-21T10:41:44;10.00;99.90
17599;DHT22;8918;52.092;5.232;2023-11-21T10:44:11;9.90;99.90
17599;DHT22;8918;52.092;5.232;2023-11-21T10:46:40;9.90;99.90
17599;DHT22;8918;52.092;5.232;2023-11-21T10:49:06;9.90;99.90
17599;DHT22;8918;52.092;5.232;2023-11-21T10:51:32;9.90;99.90
17599;DHT22;8918;52.092;5.232;2023-11-21T10:53:57;9.90;99.90
17599;DHT22;8918;52.092;5.232;2023-11-21T10:56:26;9.90;99.90
17599;DHT22;8918;52.092;5.232;2023-11-21T10:58:52;9.80;99.90
17599;DHT22;8918;52.092;5.232;2023-11-21T11:01:19;9.90;99.90
17599;DHT22;8918;52.092;5.232;2023-11-21T11:03:47;9.90;99.90
17599;DHT22;8918;52.092;5.232;2023-11-21T11:06:13;9.90;99.90
17599;DHT22;8918;52.092;5.232;2023-11-21T11:08:40;9.90;99.90
17599;DHT22;8918;52.092;5.232;2023-11-21T11:11:06;9.90;99.90
17599;DHT22;8918;52.092;5.232;2023-11-21T11:13:32;9.90;99.90
17599;DHT22;8918;52.092;5.232;2023-11-21T11:16:00;9.90;99.90
17599;DHT22;8918;52.092;5.232;2023-11-21T11:18:30;9.90;99.90
17599;DHT22;8918;52.092;5.232;2023-11-21T11:21:06;9.90;99.90
17599;DHT22;8918;52.092;5.232;2023-11-21T11:23:38;9.90;99.90
17599;DHT22;8918;52.092;5.232;2023-11-21T11:26:24;10.00;99.90
17599;DHT22;8918;52.092;5.232;2023-11-21T11:29:23;10.00;99.90
17599;DHT22;8918;52.092;5.232;2023-11-21T11:34:35;9.90;99.90
17599;DHT22;8918;52.092;5.232;2023-11-21T11:37:04;9.90;99.90
17599;DHT22;8918;52.092;5.232;2023-11-21T11:39:42;9.90;99.90
17599;DHT22;8918;52.092;5.232;2023-11-21T11:42:12;9.90;99.90
17599;DHT22;8918;52.092;5.232;2023-11-21T11:47:28;9.90;99.90
17599;DHT22;8918;52.092;5.232;2023-11-21T11:50:08;9.90;99.90
17599;DHT22;8918;52.092;5.232;2023-11-21T11:52:47;9.90;99.90
17599;DHT22;8918;52.092;5.232;2023-11-21T11:55:17;9.90;99.90
17599;DHT22;8918;52.092;5.232;2023-11-21T11:57:45;9.90;99.90
17599;DHT22;8918;52.092;5.232;2023-11-21T12:02:57;10.00;99.90
17599;DHT22;8918;52.092;5.232;2023-11-21T12:05:25;10.00;99.90
17599;DHT22;8918;52.092;5.232;2023-11-21T12:07:53;10.00;99.90
17599;DHT22;8918;52.092;5.232;2023-11-21T12:10:30;10.10;99.90
17599;DHT22;8918;52.092;5.232;2023-11-21T12:12:57;10.20;99.90
17599;DHT22;8918;52.092;5.232;2023-11-21T12:15:23;10.20;99.90
17599;DHT22;8918;52.092;5.232;2023-11-21T12:17:51;10.20;99.90
17599;DHT22;8918;52.092;5.232;2023-11-21T12:20:21;10.20;99.90
17599;DHT22;8918;52.092;5.232;2023-11-21T12:22:51;10.20;99.90
17599;DHT22;8918;52.092;5.232;2023-11-21T12:25:19;10.20;99.90
17599;DHT22;8918;52.092;5.232;2023-11-21T12:27:45;10.20;99.90
17599;DHT22;8918;52.092;5.232;2023-11-21T12:30:13;10.10;99.90
17599;DHT22;8918;52.092;5.232;2023-11-21T12:32:52;10.10;99.90
17599;DHT22;8918;52.092;5.232;2023-11-21T12:35:19;10.10;99.90
17599;DHT22;8918;52.092;5.232;2023-11-21T12:37:45;10.10;99.90
17599;DHT22;8918;52.092;5.232;2023-11-21T12:40:12;10.10;99.90
17599;DHT22;8918;52.092;5.232;2023-11-21T12:42:41;10.10;99.90
17599;DHT22;8918;52.092;5.232;2023-11-21T12:47:43;10.10;99.90
17599;DHT22;8918;52.092;5.232;2023-11-21T12:50:10;10.10;99.90
17599;DHT22;8918;52.092;5.232;2023-11-21T12:52:47;10.00;99.90
17599;DHT22;8918;52.092;5.232;2023-11-21T12:55:22;10.00;99.90
17599;DHT22;8918;52.092;5.232;2023-11-21T12:57:55;10.10;99.90
17599;DHT22;8918;52.092;5.232;2023-11-21T13:00:31;10.10;99.90
17599;DHT22;8918;52.092;5.232;2023-11-21T13:02:57;10.20;99.90
17599;DHT22;8918;52.092;5.232;2023-11-21T13:05:32;10.20;99.90
17599;DHT22;8918;52.092;5.232;2023-11-21T13:08:00;10.30;99.90
17599;DHT22;8918;52.092;5.232;2023-11-21T13:10:29;10.40;99.90
17599;DHT22;8918;52.092;5.232;2023-11-21T13:12:59;10.40;99.90
17599;DHT22;8918;52.092;5.232;2023-11-21T13:15:27;10.50;99.90
17599;DHT22;8918;52.092;5.232;2023-11-21T13:17:54;10.50;99.90
17599;DHT22;8918;52.092;5.232;2023-11-21T13:20:21;10.50;99.90
17599;DHT22;8918;52.092;5.232;2023-11-21T13:22:54;10.50;99.90
17599;DHT22;8918;52.092;5.232;2023-11-21T13:25:21;10.40;99.90
17599;DHT22;8918;52.092;5.232;2023-11-21T13:27:47;10.50;99.90
17599;DHT22;8918;52.092;5.232;2023-11-21T13:30:14;10.40;99.90
17599;DHT22;8918;52.092;5.232;2023-11-21T13:32:41;10.40;99.90
17599;DHT22;8918;52.092;5.232;2023-11-21T13:35:07;10.40;99.90
17599;DHT22;8918;52.092;5.232;2023-11-21T13:37:39;10.40;99.90
17599;DHT22;8918;52.092;5.232;2023-11-21T13:40:06;10.40;99.90
17599;DHT22;8918;52.092;5.232;2023-11-21T13:42:40;10.30;99.90
17599;DHT22;8918;52.092;5.232;2023-11-21T13:45:06;10.30;99.90
17599;DHT22;8918;52.092;5.232;2023-11-21T13:47:32;10.30;99.90
17599;DHT22;8918;52.092;5.232;2023-11-21T13:49:59;10.20;99.90
17599;DHT22;8918;52.092;5.232;2023-11-21T13:52:26;10.20;99.90
17599;DHT22;8918;52.092;5.232;2023-11-21T13:54:55;10.10;99.90
17599;DHT22;8918;52.092;5.232;2023-11-21T13:57:21;10.10;99.90
17599;DHT22;8918;52.092;5.232;2023-11-21T13:59:47;10.00;99.90
17599;DHT22;8918;52.092;5.232;2023-11-21T14:02:12;10.00;99.90
17599;DHT22;8918;52.092;5.232;2023-11-21T14:04:43;10.00;99.90
17599;DHT22;8918;52.092;5.232;2023-11-21T14:07:14;10.00;99.90
17599;DHT22;8918;52.092;5.232;2023-11-21T14:09:51;10.00;99.90
17599;DHT22;8918;52.092;5.232;2023-11-21T14:12:18;10.00;99.90
17599;DHT22;8918;52.092;5.232;2023-11-21T14:14:43;10.00;99.90
17599;DHT22;8918;52.092;5.232;2023-11-21T14:17:10;9.90;99.90
17599;DHT22;8918;52.092;5.232;2023-11-21T14:19:36;9.80;99.90
17599;DHT22;8918;52.092;5.232;2023-11-21T14:22:06;9.80;99.90
17599;DHT22;8918;52.092;5.232;2023-11-21T14:24:33;9.70;99.90
17599;DHT22;8918;52.092;5.232;2023-11-21T14:26:58;9.70;99.90
17599;DHT22;8918;52.092;5.232;2023-11-21T14:29:24;9.70;99.90
17599;DHT22;8918;52.092;5.232;2023-11-21T14:31:50;9.70;99.90
17599;DHT22;8918;52.092;5.232;2023-11-21T14:34:17;9.60;99.90
17599;DHT22;8918;52.092;5.232;2023-11-21T14:36:43;9.70;99.90
17599;DHT22;8918;52.092;5.232;2023-11-21T14:39:10;9.60;99.90
17599;DHT22;8918;52.092;5.232;2023-11-21T14:41:48;9.60;99.90
17599;DHT22;8918;52.092;5.232;2023-11-21T14:44:14;9.50;99.90
17599;DHT22;8918;52.092;5.232;2023-11-21T14:46:41;9.50;99.90
17599;DHT22;8918;52.092;5.232;2023-11-21T14:49:13;9.50;99.90
17599;DHT22;8918;52.092;5.232;2023-11-21T14:51:52;9.40;99.90
17599;DHT22;8918;52.092;5.232;2023-11-21T14:54:33;9.50;99.90
17599;DHT22;8918;52.092;5.232;2023-11-21T14:57:13;9.40;99.90
17599;DHT22;8918;52.092;5.232;2023-11-21T14:59:49;9.40;99.90
17599;DHT22;8918;52.092;5.232;2023-11-21T15:02:23;9.40;99.90
17599;DHT22;8918;52.092;5.232;2023-11-21T15:05:09;9.40;99.90
17599;DHT22;8918;52.092;5.232;2023-11-21T15:07:40;9.40;99.90
17599;DHT22;8918;52.092;5.232;2023-11-21T15:10:06;9.40;99.90
17599;DHT22;8918;52.092;5.232;2023-11-21T15:12:36;9.30;99.90
17599;DHT22;8918;52.092;5.232;2023-11-21T15:15:04;9.30;99.90
17599;DHT22;8918;52.092;5.232;2023-11-21T15:17:32;9.30;99.90
17599;DHT22;8918;52.092;5.232;2023-11-21T15:19:57;9.30;99.90
17599;DHT22;8918;52.092;5.232;2023-11-21T15:22:25;9.30;99.90
17599;DHT22;8918;52.092;5.232;2023-11-21T15:24:53;9.20;99.90
17599;DHT22;8918;52.092;5.232;2023-11-21T15:27:19;9.30;99.90
17599;DHT22;8918;52.092;5.232;2023-11-21T15:29:45;9.20;99.90
17599;DHT22;8918;52.092;5.232;2023-11-21T15:32:11;9.20;99.90
17599;DHT22;8918;52.092;5.232;2023-11-21T15:34:38;9.10;99.90
17599;DHT22;8918;52.092;5.232;2023-11-21T15:37:05;9.10;99.90
17599;DHT22;8918;52.092;5.232;2023-11-21T15:39:33;9.10;99.90
17599;DHT22;8918;52.092;5.232;2023-11-21T15:42:00;9.00;99.90
17599;DHT22;8918;52.092;5.232;2023-11-21T15:44:26;8.90;99.90
17599;DHT22;8918;52.092;5.232;2023-11-21T15:46:53;8.90;99.90
17599;DHT22;8918;52.092;5.232;2023-11-21T15:49:19;8.80;99.90
17599;DHT22;8918;52.092;5.232;2023-11-21T15:51:48;8.80;99.90
17599;DHT22;8918;52.092;5.232;2023-11-21T15:54:23;8.70;99.90
17599;DHT22;8918;52.092;5.232;2023-11-21T15:56:51;8.70;99.90
17599;DHT22;8918;52.092;5.232;2023-11-21T15:59:22;8.70;99.90
17599;DHT22;8918;52.092;5.232;2023-11-21T16:01:49;8.70;99.90
17599;DHT22;8918;52.092;5.232;2023-11-21T16:04:15;8.70;99.90
17599;DHT22;8918;52.092;5.232;2023-11-21T16:06:45;8.70;99.90
17599;DHT22;8918;52.092;5.232;2023-11-21T16:09:11;8.70;99.90